Latest Weather Observations for Cessnock Airport

IDN60801

Issued at 12:33 pm EDT Friday 20 October 2017 (issued every 30 minutes, with the page automatically refreshed every 10 minutes)

About weather observations | Map of weather stations | Latest weather observations for NSW | Other Formats
Station Details ID: 061260 Name: CESSNOCK AIRPORT AWS Lat: -32.79 Lon: 151.34 Height: 61.0 m
Data from the previous 72 hours. | See also: Recent months at Cessnock Airport
Date/Time
EDT
Temp
°C
App
Temp
°C
Dew
Point
°C
Rel
Hum
%
Delta-T
°C
Wind Press
QNH
hPa
Press
MSL
hPa
Rain since
9am
mm
Dir  Spd
km/h
Gust
km/h
Spd
kts
Gust
kts
20/12:30pm 19.1 20.3 17.4 90 1.0 WNW 7 11 4 6 1018.4 1018.3 3.6
20/12:00pm 19.2 20.7 17.5 90 1.0 W 6 9 3 5 1018.7 1018.6 3.0
20/11:30am 19.1 19.9 17.2 89 1.2 WNW 9 15 5 8 1018.9 1018.8 2.2
20/11:00am 19.5 20.8 17.6 89 1.2 WNW 7 15 4 8 1019.2 1019.1 1.4
20/10:30am 20.1 21.5 17.9 87 1.4 WNW 7 13 4 7 1019.5 1019.4 0.6
20/10:00am 20.0 21.8 18.3 90 1.1 NNW 6 9 3 5 1019.5 1019.4 0.6
20/09:30am 19.9 21.3 18.6 92 0.8 NE 9 11 5 6 1019.5 1019.4 0.6
20/09:00am 19.6 22.5 18.1 91 0.9 CALM 0 0 0 0 1019.6 1019.5 4.6
20/08:30am 18.9 20.4 17.6 92 0.8 SW 6 7 3 4 1019.5 1019.4 4.0
20/08:00am 18.7 20.9 17.4 92 0.8 WSW 2 7 1 4 1019.4 1019.3 3.4
20/07:30am 18.2 19.1 16.7 91 0.9 W 7 11 4 6 1019.2 1019.1 2.8
20/07:00am 18.1 19.1 16.3 89 1.1 W 6 7 3 4 1018.9 1018.8 1.4
20/06:30am 19.0 19.6 15.7 81 2.0 W 7 9 4 5 1018.4 1018.3 0.8
20/06:00am 20.8 19.2 14.9 69 3.5 SW 17 24 9 13 1017.7 1017.6 0.0
20/05:30am 17.5 19.1 15.0 85 1.5 CALM 0 0 0 0 1017.1 1017.0 0.0
20/05:00am 17.1 17.6 14.9 87 1.3 SE 6 13 3 7 1016.7 1016.6 0.0
20/04:30am 16.3 17.4 14.7 90 0.9 S 2 7 1 4 1016.4 1016.3 0.0
20/04:00am 16.0 17.3 14.2 89 1.0 CALM 0 0 0 0 1016.3 1016.2 0.0
20/03:30am 15.6 16.9 14.0 90 0.9 CALM 0 0 0 0 1016.5 1016.4 0.0
20/03:00am 15.1 16.2 13.5 90 0.9 CALM 0 0 0 0 1016.7 1016.6 0.0
20/02:30am 15.0 16.1 13.4 90 0.9 CALM 0 2 0 1 1016.8 1016.7 0.0
20/02:00am 14.5 15.0 12.9 90 0.9 W 2 7 1 4 1017.0 1016.9 0.0
20/01:30am 14.8 15.8 13.2 90 0.9 CALM 0 0 0 0 1017.3 1017.2 0.0
20/01:00am 14.7 14.3 12.9 89 1.0 WSW 7 9 4 5 1017.7 1017.6 0.0
20/12:30am 15.3 15.0 13.2 87 1.2 WSW 7 9 4 5 1018.0 1017.9 0.0
20/12:00am 15.9 15.9 13.6 86 1.3 SW 6 7 3 4 1018.3 1018.2 0.0
 
Date/Time
EDT
Temp
°C
App
Temp
°C
Dew
Point
°C
Rel
Hum
%
Delta-T
°C
Wind Press
QNH
hPa
Press
MSL
hPa
Rain since
9am
mm
Dir  Spd
km/h
Gust
km/h
Spd
kts
Gust
kts
19/11:30pm 16.2 16.0 13.5 84 1.5 SW 7 9 4 5 1018.5 1018.4 0.0
19/11:00pm 16.7 16.4 13.4 81 1.9 SW 7 9 4 5 1018.7 1018.6 0.0
19/10:30pm 17.6 17.5 13.9 79 2.1 SW 7 9 4 5 1018.9 1018.8 0.0
19/10:00pm 19.1 19.2 13.9 72 3.0 S 6 7 3 4 1018.9 1018.8 0.0
19/09:30pm 20.7 20.9 14.6 68 3.6 SSE 7 11 4 6 1019.0 1018.9 0.0
19/09:00pm 21.8 21.4 14.2 62 4.4 SE 9 11 5 6 1018.9 1018.8 0.0
19/08:30pm 22.8 22.6 14.6 60 4.9 ESE 9 13 5 7 1018.7 1018.6 0.0
19/08:00pm 23.1 23.3 14.7 59 5.0 SE 7 11 4 6 1018.5 1018.4 0.0
19/07:30pm 24.5 23.3 15.1 55 5.6 E 15 20 8 11 1018.2 1018.1 0.0
19/07:00pm 26.3 24.1 14.4 48 7.1 E 19 24 10 13 1017.9 1017.8 0.0
19/06:30pm 28.8 25.7 9.0 29 11.0 ENE 15 22 8 12 1017.6 1017.5 0.0
19/06:00pm 29.9 27.4 8.3 26 11.9 ENE 11 17 6 9 1017.6 1017.5 0.0
19/05:30pm 30.2 27.3 8.0 25 12.2 NE 13 20 7 11 1017.7 1017.6 0.0
19/05:00pm 30.4 28.1 7.6 24 12.4 NNE 9 17 5 9 1017.8 1017.7 0.0
19/04:30pm 30.1 27.4 7.3 24 12.4 ENE 11 17 6 9 1017.9 1017.8 0.0
19/04:00pm 30.5 27.3 8.3 25 12.2 ENE 15 24 8 13 1018.4 1018.3 0.0
19/03:30pm 29.9 27.8 8.3 26 11.9 NNW 9 19 5 10 1018.8 1018.7 0.0
19/03:00pm 29.5 26.3 8.5 27 11.6 NE 15 24 8 13 1019.4 1019.3 0.0
19/02:30pm 28.9 26.4 8.0 27 11.4 N 11 19 6 10 1020.0 1019.9 0.0
19/02:00pm 28.6 26.0 9.3 30 10.7 N 13 28 7 15 1020.6 1020.5 0.0
19/01:30pm 28.3 25.6 9.1 30 10.6 NNE 13 24 7 13 1021.2 1021.1 0.0
19/01:00pm 26.8 23.8 9.2 33 9.7 N 15 37 8 20 1021.9 1021.8 0.0
19/12:30pm 26.7 25.3 10.8 37 9.0 N 9 20 5 11 1022.4 1022.3 0.0
19/12:00pm 26.3 23.8 11.2 38 8.5 N 15 24 8 13 1023.1 1022.9 0.0
19/11:30am 25.8 23.0 10.0 37 8.8 N 15 24 8 13 1023.6 1023.5 0.0
19/11:00am 24.1 21.3 10.0 41 7.7 NNW 15 22 8 12 1024.1 1024.0 0.0
19/10:30am 23.8 22.2 10.1 42 7.5 N 9 19 5 10 1024.4 1024.3 0.0
19/10:00am 22.5 20.9 11.6 50 6.1 N 11 17 6 9 1025.0 1024.9 0.0
19/09:30am 21.3 20.5 11.6 54 5.4 NE 7 13 4 7 1025.2 1025.1 0.0
19/09:00am 20.5 20.4 12.0 58 4.7 E 4 9 2 5 1025.3 1025.2 0.0
19/08:30am 19.6 19.3 12.8 65 3.8 ESE 6 7 3 4 1025.3 1025.2 0.0
19/08:00am 17.8 17.7 13.3 75 2.5 S 6 9 3 5 1025.2 1025.1 0.0
19/07:30am 15.7 16.3 13.2 85 1.4 SSW 2 6 1 3 1025.1 1025.0 0.0
19/07:00am 13.0 13.4 12.4 96 0.3 SW 2 6 1 3 1024.8 1024.7 0.0
19/06:30am 10.7 10.0 9.9 95 0.4 S 4 6 2 3 1024.7 1024.6 0.0
19/06:00am 10.3 8.4 9.2 93 0.5 SW 9 11 5 6 1024.3 1024.2 0.0
19/05:30am 11.2 10.1 10.1 93 0.6 SSW 6 9 3 5 1024.1 1024.0 0.0
19/05:00am 12.7 11.4 11.4 92 0.7 SW 9 11 5 6 1023.8 1023.7 0.0
19/04:30am 12.5 11.5 11.1 91 0.7 SW 7 11 4 6 1023.6 1023.5 0.0
19/04:00am 12.9 11.3 11.6 92 0.7 SW 11 11 6 6 1023.9 1023.8 0.0
19/03:30am 12.7 11.8 11.4 92 0.7 SSW 7 9 4 5 1024.1 1024.0 0.0
19/03:00am 13.3 12.4 11.5 89 1.0 SSW 7 9 4 5 1024.3 1024.2 0.0
19/02:30am 13.4 12.5 11.3 87 1.1 SSW 7 9 4 5 1024.6 1024.5 0.0
19/02:00am 14.1 13.4 12.0 87 1.1 SSW 7 9 4 5 1024.6 1024.5 0.0
19/01:30am 14.2 13.4 11.7 85 1.3 SSW 7 9 4 5 1025.0 1024.9 0.0
19/01:00am 14.7 13.9 11.7 82 1.6 SSE 7 9 4 5 1025.4 1025.3 0.0
19/12:30am 15.7 14.7 12.3 80 1.9 SE 9 11 5 6 1025.6 1025.5 0.0
19/12:00am 17.0 16.5 12.7 76 2.4 SE 7 13 4 7 1025.8 1025.7 0.0
 
Date/Time
EDT
Temp
°C
App
Temp
°C
Dew
Point
°C
Rel
Hum
%
Delta-T
°C
Wind Press
QNH
hPa
Press
MSL
hPa
Rain since
9am
mm
Dir  Spd
km/h
Gust
km/h
Spd
kts
Gust
kts
18/11:30pm 17.3 16.5 13.0 76 2.4 SE 9 13 5 7 1025.8 1025.7 0.0
18/11:00pm 16.7 15.5 12.7 77 2.2 SSE 11 15 6 8 1026.0 1025.9 0.0
18/10:30pm 17.9 16.8 13.2 74 2.7 SE 11 15 6 8 1026.0 1025.9 0.0
18/10:00pm 18.0 17.0 13.3 74 2.6 SE 11 15 6 8 1026.0 1025.9 0.0
18/09:30pm 18.6 17.2 13.5 72 2.9 ESE 13 17 7 9 1025.9 1025.8 0.0
18/09:00pm 19.2 17.5 13.6 70 3.2 ESE 15 20 8 11 1025.7 1025.6 0.0
18/08:30pm 19.8 17.3 13.5 67 3.6 ESE 19 28 10 15 1025.4 1025.3 0.0
18/08:00pm 20.6 18.4 13.3 63 4.2 E 17 24 9 13 1025.0 1024.9 0.0
18/07:30pm 21.0 17.8 13.2 61 4.5 E 22 39 12 21 1024.7 1024.6 0.0
18/07:00pm 21.9 19.1 13.3 58 4.9 E 20 32 11 17 1024.4 1024.3 0.0
18/06:30pm 22.8 19.8 13.6 56 5.4 ESE 22 35 12 19 1024.0 1023.9 0.0
18/06:00pm 23.6 19.3 13.2 52 6.0 E 28 39 15 21 1023.7 1023.6 0.0
18/05:30pm 24.7 21.6 13.3 49 6.7 ESE 22 33 12 18 1023.5 1023.4 0.0
18/05:00pm 25.2 20.6 12.4 45 7.4 E 28 35 15 19 1023.2 1023.0 0.0
18/04:30pm 26.2 22.5 12.6 43 7.9 E 24 35 13 19 1023.0 1022.8 0.0
18/04:00pm 26.4 23.1 12.8 43 7.9 E 22 37 12 20 1023.3 1023.1 0.0
18/03:30pm 27.2 24.2 12.4 40 8.6 ENE 20 35 11 19 1023.4 1023.3 0.0
18/03:00pm 26.7 22.6 11.6 39 8.6 ENE 24 33 13 18 1023.7 1023.6 0.0
18/02:30pm 27.0 23.5 12.3 40 8.5 E 22 33 12 18 1023.9 1023.8 0.0
18/02:00pm 26.2 22.8 11.2 39 8.5 ENE 20 35 11 19 1024.4 1024.3 0.0
18/01:30pm 26.4 23.0 12.5 42 8.1 ENE 22 32 12 17 1024.9 1024.8 0.0
18/01:00pm 25.3 21.5 11.1 41 8.0 ENE 22 32 12 17 1025.3 1025.2 0.0
18/12:30pm 25.4 21.3 11.6 42 7.9 ENE 24 33 13 18 1025.9 1025.8 0.0
18/12:00pm 24.1 21.1 12.7 49 6.5 ENE 20 33 11 18 1026.5 1026.4 0.0
18/11:30am 23.7 20.7 12.7 50 6.3 ENE 20 35 11 19 1027.0 1026.9 0.0
18/11:00am 22.6 20.1 13.4 56 5.3 ENE 19 28 10 15 1027.5 1027.4 0.0
18/10:30am 22.1 19.6 14.0 60 4.7 ENE 20 28 11 15 1027.8 1027.7 0.0
18/10:00am 21.9 19.7 14.3 62 4.4 ENE 19 28 10 15 1028.1 1028.0 0.0
18/09:30am 21.1 18.8 14.0 64 4.1 ENE 19 24 10 13 1028.1 1028.0 0.0
18/09:00am 21.1 18.2 14.0 64 4.1 ENE 22 33 12 18 1027.9 1027.8 0.0
18/08:30am 20.8 19.8 14.7 68 3.6 ENE 13 19 7 10 1027.9 1027.8 0.0
18/08:00am 19.4 18.7 14.2 72 3.0 ENE 11 17 6 9 1027.7 1027.6 0.0
18/07:30am 18.7 18.4 14.4 76 2.5 E 9 13 5 7 1027.5 1027.4 0.0
18/07:00am 17.8 17.6 14.7 82 1.8 ESE 9 13 5 7 1027.2 1027.1 0.0
18/06:30am 16.8 16.6 14.8 88 1.2 ESE 9 13 5 7 1026.9 1026.8 0.0
18/06:00am 16.0 15.9 15.0 94 0.6 ESE 9 15 5 8 1026.5 1026.4 0.0
18/05:30am 14.6 14.6 14.1 97 0.3 S 7 9 4 5 1026.3 1026.2 0.0
18/05:00am 12.5 11.7 11.6 94 0.5 SW 7 9 4 5 1026.0 1025.9 0.0
18/04:30am 14.0 13.7 13.4 96 0.3 WSW 7 9 4 5 1026.0 1025.9 0.0
18/04:00am 13.0 12.6 12.4 96 0.3 S 6 7 3 4 1026.0 1025.9 0.0
18/03:30am 12.7 12.1 11.8 94 0.5 SSW 6 7 3 4 1026.1 1026.0 0.0
18/03:00am 13.4 12.5 12.5 94 0.5 SW 9 9 5 5 1026.4 1026.3 0.0
18/02:30am 14.1 13.7 13.0 93 0.6 SW 7 11 4 6 1026.9 1026.8 0.0
18/02:00am 15.1 14.5 13.5 90 0.9 SE 9 11 5 6 1027.2 1027.1 0.0
18/01:30am 16.0 16.0 13.7 86 1.3 SE 6 9 3 5 1027.6 1027.5 0.0
18/01:00am 16.9 16.5 14.2 84 1.5 ESE 9 13 5 7 1027.8 1027.7 0.0
18/12:30am 17.1 16.8 14.4 84 1.6 SE 9 13 5 7 1027.9 1027.8 0.0
18/12:00am 16.8 16.5 14.3 85 1.4 SE 9 13 5 7 1027.9 1027.8 0.0
 
Date/Time
EDT
Temp
°C
App
Temp
°C
Dew
Point
°C
Rel
Hum
%
Delta-T
°C
Wind Press
QNH
hPa
Press
MSL
hPa
Rain since
9am
mm
Dir  Spd
km/h
Gust
km/h
Spd
kts
Gust
kts
17/11:30pm 17.5 17.3 14.6 83 1.7 SE 9 11 5 6 1028.0 1027.9 0.0
17/11:00pm 17.6 17.4 14.7 83 1.7 SE 9 11 5 6 1027.8 1027.7 0.0
17/10:30pm 17.6 17.4 14.7 83 1.7 SE 9 15 5 8 1027.7 1027.6 0.0
17/10:00pm 17.5 16.8 14.4 82 1.8 ESE 11 13 6 7 1027.5 1027.4 0.0
17/09:30pm 18.0 16.5 14.3 79 2.1 E 15 20 8 11 1027.2 1027.1 0.0
17/09:00pm 18.4 16.5 14.3 77 2.4 ESE 17 22 9 12 1026.9 1026.8 0.0
17/08:30pm 18.8 16.4 14.3 75 2.6 ESE 20 26 11 14 1026.4 1026.3 0.0
17/08:00pm 19.0 16.8 14.3 74 2.7 E 19 28 10 15 1026.0 1025.9 0.0
17/07:30pm 19.3 16.8 14.1 72 3.0 E 20 32 11 17 1025.8 1025.7 0.0
17/07:00pm 20.0 16.2 13.7 67 3.6 E 26 39 14 21 1025.4 1025.3 0.0
17/06:30pm 20.9 17.5 13.6 63 4.2 ESE 24 33 13 18 1025.1 1025.0 0.0
17/06:00pm 21.7 18.0 13.9 61 4.5 ESE 26 39 14 21 1024.7 1024.6 0.0
17/05:30pm 22.4 18.3 13.7 58 5.1 ESE 28 41 15 22 1024.5 1024.4 0.0
17/05:00pm 23.1 19.7 13.8 55 5.4 ESE 24 39 13 21 1024.4 1024.3 0.0
17/04:30pm 22.8 19.1 13.8 57 5.3 ESE 26 39 14 21 1024.5 1024.4 0.0
17/04:00pm 24.7 21.0 15.1 55 5.7 SE 28 37 15 20 1024.4 1024.3 0.0
17/03:30pm 24.2 20.1 13.7 52 6.2 SE 28 39 15 21 1024.4 1024.3 0.0
17/03:00pm 24.9 21.4 14.4 52 6.2 SE 26 37 14 20 1024.7 1024.6 0.0
17/02:30pm 23.7 20.3 13.6 53 5.9 ESE 24 33 13 18 1024.9 1024.8 0.0
17/02:00pm 24.6 20.7 12.2 46 7.1 SE 24 33 13 18 1024.9 1024.8 0.0
17/01:30pm 24.5 20.8 11.5 44 7.4 E 22 33 12 18 1025.2 1025.1 0.0
17/01:00pm 23.4 19.2 11.1 46 6.8 SE 24 33 13 18 1025.3 1025.2 0.0

Other Formats:

Comma delimited format used in spreadsheet applications
http://www.bom.gov.au/fwo/IDN60801/IDN60801.95771.axf

JavaScript Object Notation format (JSON) in row-major order
http://www.bom.gov.au/fwo/IDN60801/IDN60801.95771.json